Time;durP1;ratioP1;P1;durP2;ratioP2;P2;SDS_P1;SDS_P2;PMS_P1;PMS_P2;Temp;Humidity;BMP_temperature;BMP_pressure;BME280_temperature;BME280_humidity;BME280_pressure;Samples;Min_cycle;Max_cycle;Signal;HPM_P1;HPM_P2
2022/07/02 00:02:18;;;;;;;3.67;1.35;;;;;;;24.52;51.08;100474.56;4903699;29;20040;-86
2022/07/02 00:04:49;;;;;;;6.28;1.25;;;;;;;24.59;50.67;100475.16;4927611;28;20488;-86
2022/07/02 00:07:14;;;;;;;5.13;1.13;;;;;;;24.45;51.82;100470.41;4923461;28;20041;-87
2022/07/02 00:09:40;;;;;;;7.32;1.40;;;;;;;24.50;51.86;100470.44;4974179;28;20069;-85
2022/07/02 00:12:09;;;;;;;6.28;1.60;;;;;;;24.35;51.46;100470.28;4965015;28;20103;-86
2022/07/02 00:14:36;;;;;;;5.82;1.40;;;;;;;24.38;51.62;100473.31;4919075;28;20079;-86
2022/07/02 00:17:02;;;;;;;11.00;1.77;;;;;;;24.24;51.87;100484.78;4905592;28;20071;-86
2022/07/02 00:19:29;;;;;;;4.28;1.45;;;;;;;24.18;52.17;100483.91;4896403;29;20051;-85
2022/07/02 00:21:58;;;;;;;4.22;1.33;;;;;;;23.92;53.51;100485.44;4930156;28;20038;-87
2022/07/02 00:24:24;;;;;;;4.97;1.30;;;;;;;23.68;54.62;100486.72;4996605;28;20035;-85
2022/07/02 00:26:54;;;;;;;6.78;1.63;;;;;;;23.52;55.38;100485.66;4994053;28;20543;-86
2022/07/02 00:29:49;;;;;;;6.57;1.27;;;;;;;23.47;55.60;100487.47;4878634;29;20048;-86
2022/07/02 00:32:14;;;;;;;5.55;1.20;;;;;;;23.61;54.74;100484.19;4889119;28;20029;-87
2022/07/02 00:34:43;;;;;;;6.05;1.38;;;;;;;23.70;54.57;100487.28;4894758;29;20108;-86
2022/07/02 00:37:10;;;;;;;8.00;1.30;;;;;;;23.63;54.67;100487.44;4897005;29;20064;-85
2022/07/02 00:39:36;;;;;;;3.08;1.02;;;;;;;23.64;54.98;100493.69;4953875;28;20042;-84
2022/07/02 00:42:04;;;;;;;1.90;1.10;;;;;;;23.49;55.57;100496.16;4962424;28;20037;-85
2022/07/02 00:44:30;;;;;;;4.78;1.40;;;;;;;23.51;56.02;100496.72;4896606;28;20087;-87
2022/07/02 00:46:59;;;;;;;4.05;1.27;;;;;;;23.39;56.18;100501.38;4914062;29;20040;-84
2022/07/02 00:49:26;;;;;;;6.18;1.30;;;;;;;23.31;56.46;100499.06;4906194;29;20037;-83
2022/07/02 00:51:52;;;;;;;8.13;1.58;;;;;;;23.24;57.15;100503.81;4920274;28;20045;-84
2022/07/02 00:54:17;;;;;;;3.75;1.08;;;;;;;23.20;57.21;100502.69;5009946;28;20050;-85
2022/07/02 00:56:43;;;;;;;4.10;1.48;;;;;;;23.31;56.94;100501.78;5012873;28;20030;-85
2022/07/02 00:59:11;;;;;;;5.43;1.30;;;;;;;23.39;56.21;100504.09;5003110;28;20033;-85
2022/07/02 01:01:36;;;;;;;10.90;1.60;;;;;;;23.41;56.50;100504.69;4952236;28;20032;-86
2022/07/02 01:04:07;;;;;;;4.13;0.90;;;;;;;23.32;57.27;100506.13;4934228;28;20124;-85
2022/07/02 01:06:35;;;;;;;5.43;1.10;;;;;;;23.27;57.53;100506.88;4945585;28;20051;-86
2022/07/02 01:11:46;;;;;;;2.97;1.10;;;;;;;23.54;56.35;100509.75;4897114;29;20044;-86
2022/07/02 01:14:16;;;;;;;4.05;1.25;;;;;;;23.38;57.42;100503.25;4884937;28;20033;-86
2022/07/02 01:16:42;;;;;;;4.57;1.67;;;;;;;23.27;57.65;100509.56;4884630;29;20115;-84
2022/07/02 01:19:08;;;;;;;4.95;1.42;;;;;;;23.10;57.96;100514.97;4886794;29;20470;-85
2022/07/02 01:21:34;;;;;;;4.13;1.45;;;;;;;23.02;57.91;100512.69;4886656;28;20086;-86
2022/07/02 01:23:59;;;;;;;3.03;1.40;;;;;;;23.05;57.73;100506.78;4887581;28;20096;-82
2022/07/02 01:26:25;;;;;;;5.97;1.67;;;;;;;22.98;58.18;100511.50;4887741;29;20037;-85
2022/07/02 01:28:50;;;;;;;3.25;1.40;;;;;;;22.89;58.48;100512.16;4884304;28;20040;-85
2022/07/02 01:31:16;;;;;;;2.03;1.30;;;;;;;22.90;59.01;100514.59;4886331;28;20043;-83
2022/07/02 01:33:41;;;;;;;3.47;1.40;;;;;;;22.81;59.60;100510.66;4886240;28;20560;-84
2022/07/02 01:36:07;;;;;;;3.53;1.85;;;;;;;22.92;59.36;100515.19;4904402;28;20103;-87
2022/07/02 01:38:33;;;;;;;4.60;1.67;;;;;;;22.92;59.47;100507.09;4979282;28;20049;-86
2022/07/02 01:41:38;;;;;;;3.25;1.50;;;;;;;22.88;59.70;100508.63;4960993;28;20123;-84
2022/07/02 01:43:47;;;;;;;6.28;1.23;;;;;;;22.90;60.06;100519.22;4895904;29;20556;-86
2022/07/02 01:46:13;;;;;;;7.63;1.65;;;;;;;22.76;61.05;100518.69;4895379;29;20494;-85
2022/07/02 01:48:38;;;;;;;3.80;1.52;;;;;;;22.65;61.37;100514.09;4894242;29;20083;-85
2022/07/02 01:51:04;;;;;;;14.15;1.95;;;;;;;22.73;60.70;100516.47;4895481;29;20394;-86
2022/07/02 01:53:29;;;;;;;5.82;1.40;;;;;;;22.76;61.14;100521.38;4895654;29;20068;-86
2022/07/02 01:55:54;;;;;;;5.47;1.50;;;;;;;;;;4902189;28;20033;-88
2022/07/02 01:58:20;;;;;;;4.88;1.48;;;;;;;22.73;61.76;100526.44;4993989;28;20069;-87
2022/07/02 02:00:45;;;;;;;2.95;1.63;;;;;;;22.69;61.63;100520.72;4993908;28;20023;-87
2022/07/02 02:03:11;;;;;;;8.05;1.73;;;;;;;22.78;61.50;100527.34;4993970;28;20030;-85
2022/07/02 02:05:36;;;;;;;7.10;1.70;;;;;;;22.68;61.60;100516.34;4993775;28;20048;-87
2022/07/02 02:08:02;;;;;;;10.02;1.85;;;;;;;22.50;63.18;100524.63;4993550;28;20132;-87
2022/07/02 02:10:28;;;;;;;5.75;1.63;;;;;;;22.67;62.78;100522.81;4991780;28;20034;-85
2022/07/02 02:12:53;;;;;;;5.22;1.50;;;;;;;22.55;62.99;100522.00;4947275;28;20115;-86
2022/07/02 02:15:19;;;;;;;7.90;1.83;;;;;;;22.39;63.85;100525.47;4894971;29;20040;-86
2022/07/02 02:17:44;;;;;;;3.83;1.58;;;;;;;22.35;64.12;100535.09;4894905;29;20059;-83
2022/07/02 02:20:10;;;;;;;3.90;1.40;;;;;;;22.40;64.51;100527.13;4921615;28;20034;-85
2022/07/02 02:22:35;;;;;;;2.72;1.40;;;;;;;22.38;65.00;100526.53;4895185;29;20111;-85
2022/07/02 02:25:01;;;;;;;7.15;1.65;;;;;;;22.61;63.67;100538.09;4909751;28;20054;-85
2022/07/02 02:27:26;;;;;;;3.45;1.40;;;;;;;22.55;63.87;100539.03;4908407;28;20045;-84
2022/07/02 02:29:52;;;;;;;3.22;1.55;;;;;;;22.50;64.08;100530.84;4895118;29;20067;-86
2022/07/02 02:32:18;;;;;;;5.05;1.48;;;;;;;22.51;64.04;100539.75;4894936;29;20128;-85
2022/07/02 02:34:44;;;;;;;4.07;1.58;;;;;;;22.46;65.10;100539.66;4895051;29;20119;-85
2022/07/02 02:37:10;;;;;;;10.32;1.83;;;;;;;22.53;65.03;100537.66;4894552;29;20068;-85
2022/07/02 02:39:35;;;;;;;5.28;1.83;;;;;;;22.47;65.23;100554.81;4950010;28;20073;-84
2022/07/02 02:42:01;;;;;;;5.40;1.55;;;;;;;22.63;64.04;100548.66;4904917;28;20478;-88
2022/07/02 02:44:26;;;;;;;3.58;1.42;;;;;;;22.64;64.27;100547.56;4897952;29;20375;-84
2022/07/02 02:46:52;;;;;;;3.13;1.60;;;;;;;22.24;66.37;100547.56;4969349;28;20058;-87
2022/07/02 02:49:17;;;;;;;7.00;1.80;;;;;;;22.08;67.33;100554.53;5002868;28;20034;-82
2022/07/02 02:51:43;;;;;;;7.30;1.77;;;;;;;21.98;67.61;100554.28;4997641;28;20118;-85
2022/07/02 02:54:08;;;;;;;4.20;1.60;;;;;;;21.93;67.88;100561.47;4998057;28;20554;-87
2022/07/02 02:56:34;;;;;;;3.75;1.80;;;;;;;21.94;67.96;100566.63;4995926;28;20042;-85
2022/07/02 02:59:00;;;;;;;3.72;1.45;;;;;;;21.96;68.10;100567.22;4996828;28;20031;-87
2022/07/02 03:01:27;;;;;;;4.68;1.58;;;;;;;21.88;68.35;100575.63;4995809;28;20506;-83
2022/07/02 03:03:52;;;;;;;12.73;1.75;;;;;;;21.83;68.66;100578.22;4996430;28;20018;-85
2022/07/02 03:06:20;;;;;;;7.30;1.83;;;;;;;21.77;69.13;100570.25;4937632;28;20108;-85
2022/07/02 03:08:45;;;;;;;8.00;1.90;;;;;;;21.71;69.42;100585.47;4897579;28;20040;-83
2022/07/02 03:11:10;;;;;;;5.50;1.63;;;;;;;21.94;68.03;100580.09;4897577;29;20028;-86
2022/07/02 03:13:36;;;;;;;4.35;1.90;;;;;;;21.82;69.04;100587.34;4982598;28;20041;-85
2022/07/02 03:16:02;;;;;;;6.65;1.95;;;;;;;21.82;69.04;100586.53;4996171;28;20038;-86
2022/07/02 03:18:27;;;;;;;2.97;1.55;;;;;;;21.86;68.64;100588.53;4964831;28;20054;-86
2022/07/02 03:20:53;;;;;;;3.88;1.50;;;;;;;21.79;69.20;100587.00;4897510;29;20029;-86
2022/07/02 03:23:19;;;;;;;4.93;1.70;;;;;;;21.86;68.48;100590.41;4897390;29;20052;-83
2022/07/02 03:25:44;;;;;;;3.67;1.75;;;;;;;21.81;68.93;100583.00;4897823;29;20075;-87
2022/07/02 03:28:10;;;;;;;5.07;1.70;;;;;;;21.80;68.61;100585.97;4938368;28;20062;-85
2022/07/02 03:30:35;;;;;;;3.22;1.58;;;;;;;21.70;69.58;100589.22;4996539;28;20030;-85
2022/07/02 03:33:01;;;;;;;4.30;1.73;;;;;;;21.67;69.43;100584.31;4997383;28;20034;-86
2022/07/02 03:35:26;;;;;;;7.68;2.03;;;;;;;21.62;69.38;100595.78;5010597;28;20049;-86
2022/07/02 03:37:52;;;;;;;8.18;1.75;;;;;;;21.58;69.23;100588.38;5010556;28;20034;-85
2022/07/02 03:40:18;;;;;;;6.13;1.88;;;;;;;21.56;69.39;100590.50;4922417;28;20062;-85
2022/07/02 03:42:43;;;;;;;3.80;1.52;;;;;;;21.54;70.05;100589.91;4931411;28;20510;-83
2022/07/02 03:45:10;;;;;;;8.77;1.73;;;;;;;21.55;69.93;100599.63;4916762;28;20068;-86
2022/07/02 03:47:35;;;;;;;4.65;1.83;;;;;;;21.65;69.18;100600.72;4909307;29;20063;-83
2022/07/02 03:50:01;;;;;;;7.43;2.25;;;;;;;21.64;69.62;100606.34;4908145;29;20127;-84
2022/07/02 03:52:26;;;;;;;7.32;2.00;;;;;;;21.52;70.24;100602.78;4897453;29;20032;-85
2022/07/02 03:54:52;;;;;;;6.45;2.17;;;;;;;21.49;70.36;100597.88;4895499;29;20036;-87
2022/07/02 03:57:17;;;;;;;5.80;1.75;;;;;;;21.46;70.82;100598.34;4956344;28;20034;-85
2022/07/02 03:59:43;;;;;;;3.38;1.75;;;;;;;21.46;71.01;100603.72;4995723;28;20066;-86
2022/07/02 04:02:08;;;;;;;3.70;1.75;;;;;;;21.57;70.26;100608.34;4995685;28;20467;-83
2022/07/02 04:04:34;;;;;;;8.65;1.85;;;;;;;21.55;69.77;100605.03;4995503;28;20026;-86
2022/07/02 04:06:59;;;;;;;6.45;1.83;;;;;;;21.81;69.06;100618.09;4995426;28;20061;-84
2022/07/02 04:09:25;;;;;;;3.10;1.40;;;;;;;21.70;69.68;100616.22;4990756;28;20034;-85
2022/07/02 04:11:50;;;;;;;9.65;1.73;;;;;;;21.66;69.84;100612.31;4995050;28;20030;-86
2022/07/02 04:14:16;;;;;;;3.08;1.70;;;;;;;21.75;69.42;100613.63;4912134;28;20068;-85
2022/07/02 04:16:41;;;;;;;3.40;1.80;;;;;;;21.83;69.36;100618.69;4911329;28;20055;-85
2022/07/02 04:19:07;;;;;;;4.72;1.80;;;;;;;22.08;67.71;100622.00;4908371;28;20037;-86
2022/07/02 04:21:33;;;;;;;5.80;1.83;;;;;;;22.08;67.86;100619.31;4897100;29;20041;-87
2022/07/02 04:23:58;;;;;;;4.45;1.50;;;;;;;22.11;67.79;100612.63;4907741;28;20034;-89
2022/07/02 04:26:24;;;;;;;5.68;1.63;;;;;;;22.29;66.33;100611.66;4984354;28;20038;-84
2022/07/02 04:28:49;;;;;;;4.63;1.67;;;;;;;22.23;68.01;100615.31;4995947;28;20492;-86
2022/07/02 04:31:15;;;;;;;5.90;1.50;;;;;;;22.19;68.37;100614.16;4995825;28;20039;-87
2022/07/02 04:33:40;;;;;;;5.28;1.80;;;;;;;22.36;67.45;100623.19;4997680;28;20026;-85
2022/07/02 04:36:06;;;;;;;5.45;1.80;;;;;;;22.35;67.52;100624.22;4995855;28;20097;-84
2022/07/02 04:38:31;;;;;;;5.47;1.55;;;;;;;22.38;67.70;100623.75;4934805;28;20040;-85
2022/07/02 04:40:57;;;;;;;4.20;1.63;;;;;;;22.27;67.90;100627.31;4896939;28;20051;-86
2022/07/02 04:43:22;;;;;;;5.88;1.85;;;;;;;22.25;68.13;100629.41;4896627;29;20032;-85
2022/07/02 04:45:48;;;;;;;11.00;2.35;;;;;;;22.26;68.92;100636.44;4969723;28;20027;-84
2022/07/02 04:48:14;;;;;;;4.97;2.00;;;;;;;22.42;67.85;100636.56;4995629;28;20046;-82
2022/07/02 04:50:39;;;;;;;4.35;1.65;;;;;;;22.57;66.86;100642.28;4995392;28;20034;-82
2022/07/02 04:53:05;;;;;;;6.40;1.67;;;;;;;22.64;66.68;100644.84;4994832;28;20494;-84
2022/07/02 04:55:30;;;;;;;7.88;1.88;;;;;;;22.78;66.47;100640.84;4995327;28;20026;-85
2022/07/02 04:57:55;;;;;;;9.82;2.10;;;;;;;22.92;66.05;100654.91;4995586;28;20029;-85
2022/07/02 05:00:21;;;;;;;6.15;2.10;;;;;;;22.95;65.89;100657.97;4999604;28;20038;-84
2022/07/02 05:02:46;;;;;;;5.22;2.20;;;;;;;22.98;66.30;100662.91;4912234;28;20501;-83
2022/07/02 05:05:12;;;;;;;5.43;2.03;;;;;;;23.10;66.05;100660.16;4899106;29;20048;-84
2022/07/02 05:07:37;;;;;;;4.38;1.60;;;;;;;23.21;65.86;100666.56;4906326;29;20462;-84
2022/07/02 05:10:04;;;;;;;6.63;1.98;;;;;;;23.23;65.63;100664.47;4912653;28;20063;-82
2022/07/02 05:12:30;;;;;;;8.32;1.90;;;;;;;23.16;65.92;100670.03;4897537;29;20366;-84
2022/07/02 05:14:55;;;;;;;4.65;1.83;;;;;;;23.42;64.65;100663.22;4896209;29;20039;-82
2022/07/02 05:17:21;;;;;;;6.55;2.20;;;;;;;23.47;65.19;100671.41;4927287;28;20049;-83
2022/07/02 05:19:49;;;;;;;7.72;1.95;;;;;;;23.63;64.53;100667.94;4996085;28;20030;-84
2022/07/02 05:22:15;;;;;;;4.72;1.60;;;;;;;23.84;63.35;100661.81;4994090;28;20038;-83
2022/07/02 05:24:40;;;;;;;7.35;1.80;;;;;;;23.79;64.03;100669.84;4992014;28;20044;-82
2022/07/02 05:27:06;;;;;;;8.23;2.22;;;;;;;23.80;63.89;100676.88;4896278;29;20438;-83
2022/07/02 05:29:31;;;;;;;5.72;1.83;;;;;;;23.91;63.52;100667.88;4896385;29;20052;-82
2022/07/02 05:31:57;;;;;;;7.80;2.38;;;;;;;24.00;63.56;100671.81;4896734;29;20468;-83
2022/07/02 05:34:22;;;;;;;9.40;1.98;;;;;;;24.21;63.24;100683.00;4895879;29;20040;-84
2022/07/02 05:36:48;;;;;;;8.32;2.00;;;;;;;24.34;62.79;100685.34;4883692;28;20087;-83
2022/07/02 05:39:14;;;;;;;10.15;2.25;;;;;;;24.47;62.51;100685.00;4921160;28;20125;-83
2022/07/02 05:41:39;;;;;;;10.55;3.15;;;;;;;24.65;61.57;100690.16;4993878;28;20030;-84
2022/07/02 05:44:05;;;;;;;9.00;2.50;;;;;;;24.90;60.87;100690.50;4979497;28;20033;-83
2022/07/02 05:46:31;;;;;;;4.75;2.15;;;;;;;25.03;60.58;100692.84;4896039;29;20128;-82
2022/07/02 05:48:56;;;;;;;11.38;1.65;;;;;;;25.31;59.77;100699.97;4895877;29;20037;-82
2022/07/02 05:51:22;;;;;;;10.25;2.05;;;;;;;25.44;59.78;100701.44;4895692;29;20372;-83
2022/07/02 05:53:50;;;;;;;10.75;2.10;;;;;;;25.54;59.09;100696.97;4890189;29;20508;-82
2022/07/02 05:56:19;;;;;;;10.25;2.10;;;;;;;25.75;58.73;100710.75;4877027;29;20060;-85
2022/07/02 05:58:44;;;;;;;6.63;2.35;;;;;;;25.97;57.72;100706.06;4876789;29;20037;-84
2022/07/02 06:01:10;;;;;;;6.22;2.13;;;;;;;26.25;56.46;100707.69;4877428;29;20092;-82
2022/07/02 06:03:36;;;;;;;5.00;2.55;;;;;;;26.44;56.09;100709.72;4879504;29;20037;-83
2022/07/02 06:08:46;;;;;;;8.25;2.97;;;;;;;26.86;55.30;100719.75;4904034;28;20050;-83
2022/07/02 06:11:12;;;;;;;9.05;2.20;;;;;;;27.06;54.75;100720.69;4968578;28;20075;-84
2022/07/02 06:13:37;;;;;;;9.52;2.58;;;;;;;27.34;54.34;100724.06;4895357;29;20095;-85
2022/07/02 06:16:03;;;;;;;12.60;2.55;;;;;;;27.54;52.51;100724.16;4895522;29;20067;-84
2022/07/02 06:18:29;;;;;;;9.70;2.22;;;;;;;27.76;52.36;100727.44;4968544;28;20052;-83
2022/07/02 06:20:54;;;;;;;11.00;2.30;;;;;;;27.74;52.55;100730.44;4999986;28;20026;-82
2022/07/02 06:23:21;;;;;;;9.07;2.70;;;;;;;28.09;51.21;100720.69;4998255;28;20092;-83
2022/07/02 06:25:48;;;;;;;8.85;2.55;;;;;;;28.25;50.30;100730.50;4998151;28;20208;-83
2022/07/02 06:28:14;;;;;;;10.07;2.53;;;;;;;28.42;49.53;100736.47;4997921;28;20042;-86
2022/07/02 06:30:39;;;;;;;8.50;1.85;;;;;;;28.77;48.46;100732.88;4955493;28;20048;-82
2022/07/02 06:33:04;;;;;;;9.73;2.00;;;;;;;29.27;47.17;100748.28;4899185;29;20044;-83
2022/07/02 06:35:30;;;;;;;12.10;2.47;;;;;;;29.33;46.66;100746.38;4898835;29;20044;-82
2022/07/02 06:37:55;;;;;;;4.93;1.83;;;;;;;29.55;45.68;100749.50;4898098;29;20044;-83
2022/07/02 06:40:21;;;;;;;10.13;2.20;;;;;;;29.68;45.04;100754.34;4945921;28;20038;-83
2022/07/02 06:42:46;;;;;;;7.05;2.50;;;;;;;30.17;44.23;100755.09;4968674;28;20460;-85
2022/07/02 06:45:12;;;;;;;11.15;1.90;;;;;;;31.01;41.97;100762.00;4898333;29;20040;-84
2022/07/02 06:47:42;;;;;;;6.35;2.10;;;;;;;30.72;42.48;100763.94;4898372;29;20561;-84
2022/07/02 06:50:09;;;;;;;9.73;2.13;;;;;;;31.89;39.16;100761.38;4978887;28;20044;-84
2022/07/02 06:52:35;;;;;;;4.75;2.05;;;;;;;31.62;38.00;100762.03;4898084;29;20033;-84
2022/07/02 06:55:01;;;;;;;10.13;2.03;;;;;;;32.65;36.61;100762.88;4898345;29;20041;-83
2022/07/02 06:57:26;;;;;;;8.18;2.40;;;;;;;32.55;34.00;100768.50;4907562;28;20041;-82
2022/07/02 06:59:53;;;;;;;11.30;2.30;;;;;;;31.53;35.83;100768.47;4998126;28;20058;-84
2022/07/02 07:02:18;;;;;;;7.60;2.00;;;;;;;31.25;37.82;100771.00;4995424;28;20034;-85
2022/07/02 07:04:44;;;;;;;8.25;2.38;;;;;;;31.18;38.19;100767.81;4996826;28;20031;-83
2022/07/02 07:07:10;;;;;;;4.55;1.90;;;;;;;31.32;39.01;100769.84;4996734;28;20031;-84
2022/07/02 07:09:37;;;;;;;6.93;2.00;;;;;;;31.14;39.18;100772.25;4996672;28;20034;-83
2022/07/02 07:12:04;;;;;;;11.48;2.15;;;;;;;31.18;39.85;100767.00;4996582;28;20035;-82
2022/07/02 07:14:31;;;;;;;7.68;2.22;;;;;;;31.21;39.30;100775.44;4997154;28;20034;-83
2022/07/02 07:16:57;;;;;;;10.40;2.22;;;;;;;31.25;38.79;100773.72;4997021;28;20040;-83
2022/07/02 07:19:23;;;;;;;11.00;2.97;;;;;;;31.25;38.90;100773.72;4973147;28;20061;-82
2022/07/02 07:21:49;;;;;;;5.65;1.95;;;;;;;31.68;38.96;100773.75;4879743;28;20495;-86
2022/07/02 07:24:14;;;;;;;10.32;2.30;;;;;;;31.76;38.18;100773.91;4880300;29;20044;-85
2022/07/02 07:26:40;;;;;;;15.15;2.80;;;;;;;31.77;37.65;100774.72;4879960;28;20399;-84
2022/07/02 07:29:06;;;;;;;8.77;3.05;;;;;;;31.27;38.56;100787.97;4879900;28;20393;-84
2022/07/02 07:31:32;;;;;;;17.10;3.08;;;;;;;31.07;39.37;100782.72;4879625;28;20475;-83
2022/07/02 07:33:58;;;;;;;9.55;2.45;;;;;;;31.48;37.98;100794.00;4879478;28;20041;-83
2022/07/02 07:36:26;;;;;;;11.77;2.88;;;;;;;32.26;36.09;100794.25;4879601;28;20045;-83
2022/07/02 07:38:52;;;;;;;10.02;3.25;;;;;;;32.57;36.33;100799.22;4879137;28;20045;-84
2022/07/02 07:41:22;;;;;;;6.72;3.00;;;;;;;33.32;34.68;100809.94;4879014;28;20037;-85
2022/07/02 07:43:48;;;;;;;7.22;2.28;;;;;;;33.18;34.75;100799.75;4878793;28;20443;-82
2022/07/02 07:46:14;;;;;;;12.77;3.45;;;;;;;32.43;36.56;100793.72;4878719;28;20487;-83
2022/07/02 07:48:40;;;;;;;12.65;2.90;;;;;;;32.33;36.54;100793.06;4878905;28;20166;-83
2022/07/02 07:51:06;;;;;;;16.98;3.70;;;;;;;32.63;36.73;100790.63;4877354;28;20182;-85
2022/07/02 07:53:34;;;;;;;14.95;3.05;;;;;;;32.92;36.72;100784.06;4878766;28;20483;-86
2022/07/02 07:56:00;;;;;;;14.32;4.78;;;;;;;33.25;36.08;100783.69;4878664;28;20438;-83
2022/07/02 07:58:26;;;;;;;14.15;3.42;;;;;;;32.78;37.06;100784.84;4878748;28;20037;-85
2022/07/02 08:00:52;;;;;;;9.25;3.72;;;;;;;32.63;36.44;100787.06;4879176;28;20533;-84
2022/07/02 08:03:18;;;;;;;12.23;3.55;;;;;;;32.40;37.37;100788.81;4879425;28;20045;-83
2022/07/02 08:05:47;;;;;;;5.72;2.58;;;;;;;32.93;36.24;100783.75;4877758;28;20491;-83
2022/07/02 08:08:14;;;;;;;11.07;2.97;;;;;;;32.90;36.13;100786.31;4879139;28;20045;-86
2022/07/02 08:10:40;;;;;;;14.07;2.22;;;;;;;33.66;34.98;100785.59;4877907;28;20052;-84
2022/07/02 08:13:06;;;;;;;10.32;2.40;;;;;;;33.69;33.92;100796.78;4878364;28;20035;-85
2022/07/02 08:15:31;;;;;;;10.90;2.28;;;;;;;33.48;34.67;100786.50;4878701;28;20454;-84
2022/07/02 08:17:57;;;;;;;6.20;2.33;;;;;;;33.57;34.63;100790.16;4878596;28;20052;-86
2022/07/02 08:20:23;;;;;;;9.30;2.97;;;;;;;33.60;34.70;100789.53;4879347;29;20037;-85
2022/07/02 08:22:50;;;;;;;8.25;2.50;;;;;;;33.69;34.49;100787.72;4877588;29;20044;-86
2022/07/02 08:25:16;;;;;;;8.15;3.65;;;;;;;33.42;34.88;100787.72;4878157;28;20043;-84
2022/07/02 08:27:42;;;;;;;15.45;2.90;;;;;;;33.40;35.42;100774.31;4878281;28;20112;-85
2022/07/02 08:30:08;;;;;;;11.73;2.60;;;;;;;33.44;35.44;100788.25;4878143;28;20040;-83
2022/07/02 08:32:34;;;;;;;8.23;2.80;;;;;;;33.43;35.06;100784.69;4877110;28;20036;-85
2022/07/02 08:34:59;;;;;;;9.68;2.15;;;;;;;33.73;34.36;100784.06;4877460;28;20053;-86
2022/07/02 08:37:25;;;;;;;8.52;2.40;;;;;;;34.23;34.45;100786.75;4877797;28;20053;-83
2022/07/02 08:39:52;;;;;;;18.23;2.88;;;;;;;34.13;34.41;100776.81;4876999;28;20048;-84
2022/07/02 08:42:28;;;;;;;9.65;2.55;;;;;;;33.89;34.48;100781.75;4878236;28;20048;-85
2022/07/02 08:45:00;;;;;;;5.88;2.28;;;;;;;34.46;33.77;100779.28;4877773;29;20120;-84
2022/07/02 08:47:26;;;;;;;4.90;1.92;;;;;;;34.41;33.60;100777.44;4877908;28;20139;-86
2022/07/02 08:49:54;;;;;;;7.28;2.17;;;;;;;33.72;34.75;100774.16;4876414;28;20041;-84
2022/07/02 08:52:21;;;;;;;11.18;2.88;;;;;;;33.18;36.02;100761.28;4877679;28;20045;-84
2022/07/02 08:54:47;;;;;;;5.45;2.30;;;;;;;33.66;34.92;100777.34;4877996;28;20040;-84
2022/07/02 08:57:16;;;;;;;9.55;2.13;;;;;;;33.60;34.92;100775.81;4876336;28;20048;-85
2022/07/02 08:59:43;;;;;;;12.75;2.45;;;;;;;33.23;35.87;100766.69;4878205;28;20037;-83
2022/07/02 09:02:15;;;;;;;10.45;2.90;;;;;;;33.82;35.08;100764.88;4879192;28;20033;-83
2022/07/02 09:04:47;;;;;;;12.68;2.90;;;;;;;33.65;35.23;100757.28;4881708;28;20037;-85
2022/07/02 09:07:14;;;;;;;14.27;2.90;;;;;;;34.28;34.57;100759.91;4882096;28;20037;-84
2022/07/02 09:09:42;;;;;;;12.50;2.58;;;;;;;34.10;35.26;100760.88;4869345;29;20344;-86
2022/07/02 09:12:12;;;;;;;8.43;2.78;;;;;;;34.04;35.81;100764.09;4894255;28;20052;-89
2022/07/02 09:14:40;;;;;;;8.80;2.65;;;;;;;34.19;35.76;100764.53;4907068;28;20040;-89
2022/07/02 09:17:07;;;;;;;17.50;3.08;;;;;;;34.56;35.28;100756.97;4893994;28;20041;-87
2022/07/02 09:19:34;;;;;;;10.82;2.88;;;;;;;34.93;34.87;100766.75;4880962;28;20047;-90
2022/07/02 09:21:59;;;;;;;14.15;2.53;;;;;;;34.91;35.23;100769.78;4879501;28;20109;-87
2022/07/02 09:24:39;;;;;;;13.38;2.60;;;;;;;34.47;36.59;100772.66;4878309;29;20053;-84
2022/07/02 09:27:15;;;;;;;9.13;2.75;;;;;;;34.72;36.41;100777.50;4877896;28;20072;-83
2022/07/02 09:29:49;;;;;;;16.00;3.88;;;;;;;35.17;35.70;100776.25;4878230;28;20163;-84
2022/07/02 09:32:16;;;;;;;17.75;2.97;;;;;;;35.70;34.37;100775.22;4879618;29;20132;-85
2022/07/02 09:34:45;;;;;;;12.75;2.88;;;;;;;35.87;33.76;100780.75;4878023;28;20469;-84
2022/07/02 09:37:13;;;;;;;12.82;3.15;;;;;;;35.12;36.53;100792.94;4886651;29;20017;-83
2022/07/02 09:39:41;;;;;;;15.40;3.50;;;;;;;34.21;38.26;100784.28;4894013;28;20108;-85
2022/07/02 09:42:07;;;;;;;11.93;3.05;;;;;;;33.64;39.49;100774.88;4886280;28;20033;-82
2022/07/02 09:44:33;;;;;;;14.43;3.60;;;;;;;33.64;39.36;100776.84;4886913;28;20040;-80
2022/07/02 09:46:58;;;;;;;16.52;3.53;;;;;;;33.84;39.22;100781.84;4892926;28;20097;-81
2022/07/02 09:49:24;;;;;;;13.25;3.42;;;;;;;34.13;38.63;100792.50;4901630;28;20041;-83
2022/07/02 09:51:52;;;;;;;14.90;3.28;;;;;;;33.49;39.40;100777.13;4894908;28;20036;-83
2022/07/02 09:54:23;;;;;;;23.20;3.83;;;;;;;33.70;38.74;100779.16;4892899;28;20387;-86
2022/07/02 09:56:57;;;;;;;17.53;3.70;;;;;;;33.78;39.27;100780.34;4894917;28;20037;-84
2022/07/02 09:59:23;;;;;;;16.80;3.58;;;;;;;33.35;39.85;100770.84;4899997;29;20352;-85
2022/07/02 10:01:49;;;;;;;14.18;3.28;;;;;;;33.62;39.93;100779.06;4900263;28;20036;-85
2022/07/02 10:04:15;;;;;;;10.40;3.58;;;;;;;33.39;40.42;100772.69;4899198;28;20138;-85
2022/07/02 10:06:43;;;;;;;18.35;4.10;;;;;;;33.21;41.05;100773.63;4899371;28;20077;-86
2022/07/02 10:09:11;;;;;;;19.60;4.20;;;;;;;33.22;41.26;100772.50;4899318;29;20041;-85
2022/07/02 10:11:37;;;;;;;13.60;3.58;;;;;;;33.21;41.74;100777.16;4899500;29;20039;-83
2022/07/02 10:14:04;;;;;;;14.90;3.25;;;;;;;33.84;40.04;100779.09;4899624;29;20504;-86
2022/07/02 10:16:30;;;;;;;17.83;3.60;;;;;;;33.64;39.91;100779.59;4898745;29;20392;-85
2022/07/02 10:18:58;;;;;;;15.80;4.43;;;;;;;33.30;41.20;100779.22;4899389;29;20069;-87
2022/07/02 10:21:25;;;;;;;16.08;3.67;;;;;;;33.02;41.13;100776.44;4898998;29;20128;-86
2022/07/02 10:23:54;;;;;;;16.73;3.60;;;;;;;33.54;40.27;100763.31;4897961;29;20037;-84
2022/07/02 10:26:22;;;;;;;15.45;3.40;;;;;;;33.47;40.72;100771.16;4899585;29;20054;-89
2022/07/02 10:28:49;;;;;;;15.30;3.30;;;;;;;33.41;40.08;100762.19;4899181;29;20036;-89
2022/07/02 10:31:19;;;;;;;21.02;3.72;;;;;;;33.24;40.58;100753.78;4899265;29;20044;-89
2022/07/02 10:34:00;;;;;;;16.13;3.85;;;;;;;34.02;39.79;100758.88;4884200;29;20040;-91
2022/07/02 10:36:26;;;;;;;20.10;4.10;;;;;;;34.06;40.08;100770.06;4899892;29;20123;-88
2022/07/02 10:38:59;;;;;;;23.33;4.00;;;;;;;33.75;40.81;100765.28;4904075;29;20041;-88
2022/07/02 10:41:26;;;;;;;14.00;3.60;;;;;;;33.72;41.11;100760.41;4919610;29;20078;-86
2022/07/02 10:43:54;;;;;;;22.30;5.25;;;;;;;34.18;39.89;100756.59;4916943;28;20051;-85
2022/07/02 10:46:21;;;;;;;15.98;3.58;;;;;;;34.08;39.11;100757.63;4920914;29;20040;-87
2022/07/02 10:48:48;;;;;;;19.30;3.55;;;;;;;33.81;40.42;100754.97;4920421;28;20095;-87
2022/07/02 10:51:23;;;;;;;13.85;4.05;;;;;;;33.92;40.66;100759.13;4890666;29;20049;-88
2022/07/02 10:54:01;;;;;;;20.45;3.55;;;;;;;34.49;39.95;100762.13;4905005;28;20041;-85
2022/07/02 10:56:28;;;;;;;20.30;3.78;;;;;;;34.72;38.44;100752.72;4910628;29;20048;-88
2022/07/02 10:58:54;;;;;;;19.35;3.33;;;;;;;34.41;37.69;100757.38;4900507;28;20041;-87
2022/07/02 11:01:22;;;;;;;17.63;3.47;;;;;;;34.14;38.10;100767.41;4899492;29;20033;-87
2022/07/02 11:03:59;;;;;;;11.13;3.47;;;;;;;34.16;37.99;100754.16;4898227;28;20493;-90
2022/07/02 11:06:26;;;;;;;20.17;3.80;;;;;;;34.23;37.87;100751.78;4897813;29;20116;-88
2022/07/02 11:08:53;;;;;;;12.27;4.10;;;;;;;34.36;38.29;100749.25;4898141;29;20449;-88
2022/07/02 11:11:38;;;;;;;12.70;3.25;;;;;;;34.31;37.91;100757.63;4900160;29;20033;-91
2022/07/02 11:14:08;;;;;;;12.40;3.65;;;;;;;33.54;39.75;100742.09;4899780;28;20464;-87
2022/07/02 11:16:51;;;;;;;12.90;2.63;;;;;;;33.90;38.80;100744.88;4901008;29;20041;-87
2022/07/02 11:19:29;;;;;;;11.00;3.65;;;;;;;33.93;38.95;100755.25;4900027;29;20044;-87
2022/07/02 11:22:00;;;;;;;14.55;3.58;;;;;;;33.38;40.44;100745.53;4899134;29;20116;-91
2022/07/02 11:24:28;;;;;;;16.92;3.60;;;;;;;33.28;41.04;100730.88;4898737;28;20509;-85
2022/07/02 11:26:54;;;;;;;18.67;3.58;;;;;;;33.72;40.19;100748.59;4898330;29;20123;-87